sensor_id;sensor_type;location;lat;lon;timestamp;pressure;altitude;pressure_sealevel;temperature;humidity
75312;BME280;63906;55.686;37.532;2023-10-31T00:03:44;98831.84;;;9.71;100.00
75312;BME280;63906;55.686;37.532;2023-10-31T00:08:45;98831.63;;;9.66;100.00
75312;BME280;63906;55.686;37.532;2023-10-31T00:13:45;98817.09;;;9.57;100.00
75312;BME280;63906;55.686;37.532;2023-10-31T00:18:45;98870.66;;;9.76;100.00
75312;BME280;63906;55.686;37.532;2023-10-31T00:23:47;98858.91;;;9.72;100.00
75312;BME280;63906;55.686;37.532;2023-10-31T00:28:48;98876.72;;;9.77;100.00
75312;BME280;63906;55.686;37.532;2023-10-31T00:33:48;98883.78;;;9.76;100.00
75312;BME280;63906;55.686;37.532;2023-10-31T00:38:49;98874.31;;;9.75;100.00
75312;BME280;63906;55.686;37.532;2023-10-31T00:43:49;98860.94;;;9.50;100.00
75312;BME280;63906;55.686;37.532;2023-10-31T00:48:50;98900.56;;;9.82;100.00
75312;BME280;63906;55.686;37.532;2023-10-31T00:53:50;98903.22;;;9.82;100.00
75312;BME280;63906;55.686;37.532;2023-10-31T00:58:51;98912.72;;;9.83;100.00
75312;BME280;63906;55.686;37.532;2023-10-31T01:03:51;98936.56;;;9.88;100.00
75312;BME280;63906;55.686;37.532;2023-10-31T01:08:52;98931.69;;;9.85;100.00
75312;BME280;63906;55.686;37.532;2023-10-31T01:13:52;98895.50;;;9.60;100.00
75312;BME280;63906;55.686;37.532;2023-10-31T01:18:53;98945.84;;;9.84;100.00
75312;BME280;63906;55.686;37.532;2023-10-31T01:23:53;98937.38;;;9.82;100.00
75312;BME280;63906;55.686;37.532;2023-10-31T01:28:54;98953.16;;;9.88;100.00
75312;BME280;63906;55.686;37.532;2023-10-31T01:33:54;98946.25;;;9.74;100.00
75312;BME280;63906;55.686;37.532;2023-10-31T01:38:55;98948.88;;;9.67;100.00
75312;BME280;63906;55.686;37.532;2023-10-31T01:43:55;98940.56;;;9.44;100.00
75312;BME280;63906;55.686;37.532;2023-10-31T01:48:56;98984.84;;;9.74;100.00
75312;BME280;63906;55.686;37.532;2023-10-31T01:53:56;98979.81;;;9.72;100.00
75312;BME280;63906;55.686;37.532;2023-10-31T01:58:57;98950.25;;;9.50;100.00
75312;BME280;63906;55.686;37.532;2023-10-31T02:03:58;98981.81;;;9.63;100.00
75312;BME280;63906;55.686;37.532;2023-10-31T02:08:58;98963.34;;;9.37;100.00
75312;BME280;63906;55.686;37.532;2023-10-31T02:14:00;98998.56;;;9.56;100.00
75312;BME280;63906;55.686;37.532;2023-10-31T02:19:01;99004.47;;;9.64;100.00
75312;BME280;63906;55.686;37.532;2023-10-31T02:24:02;98971.22;;;9.37;100.00
75312;BME280;63906;55.686;37.532;2023-10-31T02:29:03;98977.13;;;9.46;100.00
75312;BME280;63906;55.686;37.532;2023-10-31T02:34:04;99027.72;;;9.74;100.00
75312;BME280;63906;55.686;37.532;2023-10-31T02:39:05;99035.19;;;9.70;100.00
75312;BME280;63906;55.686;37.532;2023-10-31T02:44:06;98978.09;;;9.31;100.00
75312;BME280;63906;55.686;37.532;2023-10-31T02:49:06;99036.00;;;9.71;100.00
75312;BME280;63906;55.686;37.532;2023-10-31T02:54:09;99051.38;;;9.81;100.00
75312;BME280;63906;55.686;37.532;2023-10-31T02:59:09;99019.00;;;9.60;100.00
75312;BME280;63906;55.686;37.532;2023-10-31T03:04:09;99033.53;;;9.56;100.00
75312;BME280;63906;55.686;37.532;2023-10-31T03:09:10;99075.06;;;9.87;100.00
75312;BME280;63906;55.686;37.532;2023-10-31T03:14:11;99066.75;;;9.77;100.00
75312;BME280;63906;55.686;37.532;2023-10-31T03:19:11;99028.88;;;9.52;100.00
75312;BME280;63906;55.686;37.532;2023-10-31T03:24:11;99066.56;;;9.79;100.00
75312;BME280;63906;55.686;37.532;2023-10-31T03:29:12;99075.44;;;9.78;100.00
75312;BME280;63906;55.686;37.532;2023-10-31T03:34:12;99051.75;;;9.58;100.00
75312;BME280;63906;55.686;37.532;2023-10-31T03:39:13;99078.69;;;9.80;100.00
75312;BME280;63906;55.686;37.532;2023-10-31T03:44:13;99081.75;;;9.83;100.00
75312;BME280;63906;55.686;37.532;2023-10-31T03:49:14;99087.78;;;9.77;100.00
75312;BME280;63906;55.686;37.532;2023-10-31T03:54:14;99101.16;;;9.89;100.00
75312;BME280;63906;55.686;37.532;2023-10-31T03:59:15;99073.56;;;9.58;100.00
75312;BME280;63906;55.686;37.532;2023-10-31T04:04:15;99095.44;;;9.72;100.00
75312;BME280;63906;55.686;37.532;2023-10-31T04:09:16;99109.63;;;9.78;100.00
75312;BME280;63906;55.686;37.532;2023-10-31T04:14:16;99120.94;;;9.78;100.00
75312;BME280;63906;55.686;37.532;2023-10-31T04:19:17;99106.31;;;9.62;100.00
75312;BME280;63906;55.686;37.532;2023-10-31T04:24:17;99112.75;;;9.53;100.00
75312;BME280;63906;55.686;37.532;2023-10-31T04:29:18;99086.97;;;9.29;100.00
75312;BME280;63906;55.686;37.532;2023-10-31T04:34:18;99088.94;;;9.13;100.00
75312;BME280;63906;55.686;37.532;2023-10-31T04:39:18;99081.66;;;8.87;100.00
75312;BME280;63906;55.686;37.532;2023-10-31T04:44:19;99101.09;;;8.93;100.00
75312;BME280;63906;55.686;37.532;2023-10-31T04:49:20;99149.31;;;9.13;100.00
75312;BME280;63906;55.686;37.532;2023-10-31T04:54:20;99138.13;;;9.05;100.00
75312;BME280;63906;55.686;37.532;2023-10-31T04:59:21;99171.66;;;9.03;100.00
75312;BME280;63906;55.686;37.532;2023-10-31T05:04:21;99131.59;;;8.66;100.00
75312;BME280;63906;55.686;37.532;2023-10-31T05:09:22;99108.47;;;8.33;100.00
75312;BME280;63906;55.686;37.532;2023-10-31T05:14:23;99122.91;;;8.44;100.00
75312;BME280;63906;55.686;37.532;2023-10-31T05:19:24;99164.69;;;8.67;100.00
75312;BME280;63906;55.686;37.532;2023-10-31T05:24:24;99179.97;;;8.85;100.00
75312;BME280;63906;55.686;37.532;2023-10-31T05:29:24;99179.84;;;8.93;100.00
75312;BME280;63906;55.686;37.532;2023-10-31T05:34:25;99149.50;;;8.84;100.00
75312;BME280;63906;55.686;37.532;2023-10-31T05:39:25;99164.28;;;8.92;100.00
75312;BME280;63906;55.686;37.532;2023-10-31T05:44:26;99201.13;;;9.26;100.00
75312;BME280;63906;55.686;37.532;2023-10-31T05:49:27;99226.78;;;9.59;100.00
75312;BME280;63906;55.686;37.532;2023-10-31T05:54:27;99230.50;;;9.71;100.00
75312;BME280;63906;55.686;37.532;2023-10-31T05:59:28;99199.72;;;9.65;100.00
75312;BME280;63906;55.686;37.532;2023-10-31T06:04:28;99248.03;;;10.05;100.00
75312;BME280;63906;55.686;37.532;2023-10-31T06:09:29;99265.03;;;10.37;100.00
75312;BME280;63906;55.686;37.532;2023-10-31T06:14:29;99280.22;;;10.55;100.00
75312;BME280;63906;55.686;37.532;2023-10-31T06:19:35;99267.66;;;10.44;100.00
75312;BME280;63906;55.686;37.532;2023-10-31T06:24:36;99264.28;;;10.63;100.00
75312;BME280;63906;55.686;37.532;2023-10-31T06:29:36;99265.72;;;10.72;100.00
75312;BME280;63906;55.686;37.532;2023-10-31T06:34:37;99224.16;;;10.48;100.00
75312;BME280;63906;55.686;37.532;2023-10-31T06:39:37;99231.88;;;10.56;100.00
75312;BME280;63906;55.686;37.532;2023-10-31T06:44:37;99269.38;;;10.98;100.00
75312;BME280;63906;55.686;37.532;2023-10-31T06:49:49;99286.44;;;11.15;100.00
75312;BME280;63906;55.686;37.532;2023-10-31T06:54:50;99234.13;;;10.99;100.00
75312;BME280;63906;55.686;37.532;2023-10-31T06:59:50;99294.34;;;11.28;100.00
75312;BME280;63906;55.686;37.532;2023-10-31T07:04:51;99285.25;;;11.24;100.00
75312;BME280;63906;55.686;37.532;2023-10-31T07:09:52;99327.59;;;11.56;100.00
75312;BME280;63906;55.686;37.532;2023-10-31T07:14:55;99325.78;;;11.50;100.00
75312;BME280;63906;55.686;37.532;2023-10-31T07:19:55;99330.84;;;11.71;100.00
75312;BME280;63906;55.686;37.532;2023-10-31T07:24:56;99305.50;;;11.57;100.00
75312;BME280;63906;55.686;37.532;2023-10-31T07:30:00;99346.25;;;11.74;100.00
75312;BME280;63906;55.686;37.532;2023-10-31T07:35:00;99345.63;;;11.72;100.00
75312;BME280;63906;55.686;37.532;2023-10-31T07:40:01;99361.47;;;11.52;100.00
75312;BME280;63906;55.686;37.532;2023-10-31T07:45:01;99361.06;;;11.89;100.00
75312;BME280;63906;55.686;37.532;2023-10-31T07:50:02;99358.50;;;12.47;100.00
75312;BME280;63906;55.686;37.532;2023-10-31T07:55:06;99354.00;;;12.54;100.00
75312;BME280;63906;55.686;37.532;2023-10-31T08:00:10;99367.19;;;12.67;100.00
75312;BME280;63906;55.686;37.532;2023-10-31T08:05:14;99362.19;;;12.39;100.00
75312;BME280;63906;55.686;37.532;2023-10-31T08:10:15;99376.78;;;12.55;100.00
75312;BME280;63906;55.686;37.532;2023-10-31T08:15:15;99385.19;;;12.83;100.00
75312;BME280;63906;55.686;37.532;2023-10-31T08:20:17;99377.50;;;12.75;100.00
75312;BME280;63906;55.686;37.532;2023-10-31T08:25:17;99385.72;;;12.47;100.00
75312;BME280;63906;55.686;37.532;2023-10-31T08:30:18;99395.91;;;12.44;100.00
75312;BME280;63906;55.686;37.532;2023-10-31T08:35:20;99361.63;;;12.30;100.00
75312;BME280;63906;55.686;37.532;2023-10-31T08:40:22;99392.81;;;12.47;100.00
75312;BME280;63906;55.686;37.532;2023-10-31T08:45:22;99373.78;;;12.38;100.00
75312;BME280;63906;55.686;37.532;2023-10-31T08:50:23;99384.94;;;12.40;97.26
75312;BME280;63906;55.686;37.532;2023-10-31T08:55:23;99363.09;;;12.00;100.00
75312;BME280;63906;55.686;37.532;2023-10-31T09:00:24;99380.88;;;12.37;100.00
75312;BME280;63906;55.686;37.532;2023-10-31T09:05:25;99371.47;;;12.61;100.00
75312;BME280;63906;55.686;37.532;2023-10-31T09:10:26;99377.06;;;12.78;100.00
75312;BME280;63906;55.686;37.532;2023-10-31T09:15:26;99331.97;;;12.73;100.00
75312;BME280;63906;55.686;37.532;2023-10-31T09:20:27;99403.56;;;13.03;100.00
75312;BME280;63906;55.686;37.532;2023-10-31T09:25:28;99397.72;;;12.94;97.89
75312;BME280;63906;55.686;37.532;2023-10-31T09:30:30;99383.00;;;12.74;100.00
75312;BME280;63906;55.686;37.532;2023-10-31T09:35:30;99382.72;;;12.88;100.00
75312;BME280;63906;55.686;37.532;2023-10-31T09:40:31;99381.66;;;13.34;100.00
75312;BME280;63906;55.686;37.532;2023-10-31T09:45:32;99360.22;;;13.24;100.00
75312;BME280;63906;55.686;37.532;2023-10-31T09:50:33;99354.63;;;13.01;100.00
75312;BME280;63906;55.686;37.532;2023-10-31T09:55:33;99371.84;;;13.41;100.00
75312;BME280;63906;55.686;37.532;2023-10-31T10:00:34;99369.38;;;13.46;100.00
75312;BME280;63906;55.686;37.532;2023-10-31T10:05:40;99381.00;;;13.70;100.00
75312;BME280;63906;55.686;37.532;2023-10-31T10:10:44;99387.09;;;13.71;100.00
75312;BME280;63906;55.686;37.532;2023-10-31T10:15:49;99388.78;;;13.65;100.00
75312;BME280;63906;55.686;37.532;2023-10-31T10:20:57;99379.28;;;13.26;99.84
75312;BME280;63906;55.686;37.532;2023-10-31T10:25:59;99378.91;;;13.16;100.00
75312;BME280;63906;55.686;37.532;2023-10-31T10:31:00;99377.59;;;13.38;100.00
75312;BME280;63906;55.686;37.532;2023-10-31T10:36:02;99376.88;;;13.18;100.00
75312;BME280;63906;55.686;37.532;2023-10-31T10:41:05;99318.78;;;12.80;100.00
75312;BME280;63906;55.686;37.532;2023-10-31T10:46:07;99348.13;;;13.60;100.00
75312;BME280;63906;55.686;37.532;2023-10-31T10:51:14;99347.44;;;13.71;100.00
75312;BME280;63906;55.686;37.532;2023-10-31T10:56:34;99340.63;;;13.57;100.00
75312;BME280;63906;55.686;37.532;2023-10-31T11:01:38;99352.41;;;13.36;100.00
75312;BME280;63906;55.686;37.532;2023-10-31T11:06:39;99372.41;;;13.25;100.00
75312;BME280;63906;55.686;37.532;2023-10-31T11:11:40;99374.47;;;13.10;100.00
75312;BME280;63906;55.686;37.532;2023-10-31T11:16:48;99270.00;;;12.44;100.00
75312;BME280;63906;55.686;37.532;2023-10-31T11:22:00;99350.00;;;13.28;100.00
75312;BME280;63906;55.686;37.532;2023-10-31T11:27:03;99328.38;;;13.06;100.00
75312;BME280;63906;55.686;37.532;2023-10-31T11:32:08;99363.09;;;13.09;100.00
75312;BME280;63906;55.686;37.532;2023-10-31T11:37:31;99384.16;;;12.84;100.00
75312;BME280;63906;55.686;37.532;2023-10-31T11:42:32;99374.66;;;13.15;100.00
75312;BME280;63906;55.686;37.532;2023-10-31T11:47:47;99345.44;;;12.65;93.01
75312;BME280;63906;55.686;37.532;2023-10-31T11:58:24;99342.06;;;12.45;96.25
75312;BME280;63906;55.686;37.532;2023-10-31T12:03:26;99368.72;;;12.36;100.00
75312;BME280;63906;55.686;37.532;2023-10-31T12:08:31;99358.63;;;12.07;100.00
75312;BME280;63906;55.686;37.532;2023-10-31T12:13:33;99322.53;;;11.48;100.00
75312;BME280;63906;55.686;37.532;2023-10-31T12:18:35;99333.44;;;11.12;100.00
75312;BME280;63906;55.686;37.532;2023-10-31T12:23:36;99338.56;;;10.59;100.00
75312;BME280;63906;55.686;37.532;2023-10-31T12:28:36;99362.41;;;10.44;100.00
75312;BME280;63906;55.686;37.532;2023-10-31T12:33:38;99354.69;;;10.49;100.00
75312;BME280;63906;55.686;37.532;2023-10-31T12:38:38;99320.59;;;9.65;100.00
75312;BME280;63906;55.686;37.532;2023-10-31T12:43:39;99358.41;;;9.92;100.00
75312;BME280;63906;55.686;37.532;2023-10-31T12:48:40;99347.31;;;9.68;100.00
75312;BME280;63906;55.686;37.532;2023-10-31T12:53:40;99382.31;;;9.97;100.00
75312;BME280;63906;55.686;37.532;2023-10-31T12:58:41;99369.78;;;9.50;100.00
75312;BME280;63906;55.686;37.532;2023-10-31T13:03:59;99379.69;;;9.48;100.00
75312;BME280;63906;55.686;37.532;2023-10-31T13:09:00;99389.75;;;9.23;100.00
75312;BME280;63906;55.686;37.532;2023-10-31T13:14:01;99394.88;;;9.09;100.00
75312;BME280;63906;55.686;37.532;2023-10-31T13:19:02;99352.91;;;8.95;100.00
75312;BME280;63906;55.686;37.532;2023-10-31T13:24:02;99415.66;;;8.89;100.00
75312;BME280;63906;55.686;37.532;2023-10-31T13:29:04;99383.75;;;9.29;100.00
75312;BME280;63906;55.686;37.532;2023-10-31T13:34:04;99372.31;;;9.15;100.00
75312;BME280;63906;55.686;37.532;2023-10-31T13:39:05;99406.88;;;9.18;100.00
75312;BME280;63906;55.686;37.532;2023-10-31T13:44:05;99399.38;;;9.15;100.00
75312;BME280;63906;55.686;37.532;2023-10-31T13:49:06;99395.22;;;9.06;100.00
75312;BME280;63906;55.686;37.532;2023-10-31T13:54:07;99393.00;;;9.25;100.00
75312;BME280;63906;55.686;37.532;2023-10-31T13:59:08;99393.56;;;9.41;100.00
75312;BME280;63906;55.686;37.532;2023-10-31T14:04:09;99397.28;;;9.26;100.00
75312;BME280;63906;55.686;37.532;2023-10-31T14:09:10;99392.31;;;9.16;100.00
75312;BME280;63906;55.686;37.532;2023-10-31T14:14:12;99394.53;;;9.19;100.00
75312;BME280;63906;55.686;37.532;2023-10-31T14:19:14;99370.00;;;9.27;100.00
75312;BME280;63906;55.686;37.532;2023-10-31T14:24:16;99389.75;;;9.23;100.00
75312;BME280;63906;55.686;37.532;2023-10-31T14:29:19;99368.34;;;8.83;100.00
75312;BME280;63906;55.686;37.532;2023-10-31T14:34:21;99385.72;;;9.05;100.00
75312;BME280;63906;55.686;37.532;2023-10-31T14:39:21;99328.38;;;8.66;100.00
75312;BME280;63906;55.686;37.532;2023-10-31T14:44:22;99377.19;;;8.82;100.00
75312;BME280;63906;55.686;37.532;2023-10-31T14:49:22;99373.72;;;8.96;100.00
75312;BME280;63906;55.686;37.532;2023-10-31T14:54:23;99368.09;;;8.99;100.00
75312;BME280;63906;55.686;37.532;2023-10-31T14:59:28;99370.03;;;9.12;100.00
75312;BME280;63906;55.686;37.532;2023-10-31T15:04:29;99347.97;;;9.06;100.00
75312;BME280;63906;55.686;37.532;2023-10-31T15:09:29;99347.22;;;9.12;100.00
75312;BME280;63906;55.686;37.532;2023-10-31T15:14:30;99324.22;;;9.14;100.00
75312;BME280;63906;55.686;37.532;2023-10-31T15:19:30;99293.34;;;8.95;100.00
75312;BME280;63906;55.686;37.532;2023-10-31T15:24:31;99334.34;;;9.17;100.00
75312;BME280;63906;55.686;37.532;2023-10-31T15:29:33;99311.53;;;8.97;100.00
75312;BME280;63906;55.686;37.532;2023-10-31T15:34:34;99323.16;;;9.09;100.00
75312;BME280;63906;55.686;37.532;2023-10-31T15:39:39;99324.53;;;9.05;100.00
75312;BME280;63906;55.686;37.532;2023-10-31T15:44:48;99335.47;;;9.08;100.00
75312;BME280;63906;55.686;37.532;2023-10-31T15:49:49;99347.06;;;9.14;100.00
75312;BME280;63906;55.686;37.532;2023-10-31T15:54:49;99304.59;;;8.89;100.00
75312;BME280;63906;55.686;37.532;2023-10-31T15:59:50;99309.31;;;8.79;100.00
75312;BME280;63906;55.686;37.532;2023-10-31T16:04:51;99325.34;;;9.05;100.00
75312;BME280;63906;55.686;37.532;2023-10-31T16:09:51;99339.84;;;9.01;100.00
75312;BME280;63906;55.686;37.532;2023-10-31T16:14:51;99296.41;;;8.77;100.00
75312;BME280;63906;55.686;37.532;2023-10-31T16:19:52;99319.94;;;9.07;100.00
75312;BME280;63906;55.686;37.532;2023-10-31T16:24:52;99312.09;;;9.13;100.00
75312;BME280;63906;55.686;37.532;2023-10-31T16:29:53;99307.09;;;8.97;100.00
75312;BME280;63906;55.686;37.532;2023-10-31T16:34:56;99288.97;;;9.02;100.00
75312;BME280;63906;55.686;37.532;2023-10-31T16:39:56;99264.97;;;8.84;100.00
75312;BME280;63906;55.686;37.532;2023-10-31T16:45:01;99286.22;;;8.89;100.00
75312;BME280;63906;55.686;37.532;2023-10-31T16:50:01;99273.22;;;9.02;100.00
75312;BME280;63906;55.686;37.532;2023-10-31T16:55:03;99277.78;;;8.94;100.00
75312;BME280;63906;55.686;37.532;2023-10-31T17:00:04;99285.28;;;8.97;100.00
75312;BME280;63906;55.686;37.532;2023-10-31T17:05:05;99261.22;;;9.14;100.00
75312;BME280;63906;55.686;37.532;2023-10-31T17:10:15;99255.41;;;8.98;100.00
75312;BME280;63906;55.686;37.532;2023-10-31T17:15:19;99245.41;;;9.08;100.00
75312;BME280;63906;55.686;37.532;2023-10-31T17:20:20;99225.84;;;8.89;100.00
75312;BME280;63906;55.686;37.532;2023-10-31T17:25:20;99189.81;;;8.76;100.00
75312;BME280;63906;55.686;37.532;2023-10-31T17:30:21;99234.50;;;9.11;100.00
75312;BME280;63906;55.686;37.532;2023-10-31T17:35:21;99211.97;;;8.95;100.00
75312;BME280;63906;55.686;37.532;2023-10-31T17:40:22;99188.41;;;9.02;100.00
75312;BME280;63906;55.686;37.532;2023-10-31T17:45:43;99193.81;;;9.22;100.00
75312;BME280;63906;55.686;37.532;2023-10-31T17:50:47;99149.97;;;8.94;100.00
75312;BME280;63906;55.686;37.532;2023-10-31T17:55:49;99188.81;;;9.05;100.00
75312;BME280;63906;55.686;37.532;2023-10-31T18:00:49;99184.22;;;9.42;100.00
75312;BME280;63906;55.686;37.532;2023-10-31T18:05:53;99174.13;;;9.39;100.00
75312;BME280;63906;55.686;37.532;2023-10-31T18:10:54;99179.41;;;9.17;100.00
75312;BME280;63906;55.686;37.532;2023-10-31T18:15:55;99171.19;;;9.21;100.00
75312;BME280;63906;55.686;37.532;2023-10-31T18:20:55;99138.22;;;9.18;100.00
75312;BME280;63906;55.686;37.532;2023-10-31T18:25:57;99162.38;;;9.35;100.00
75312;BME280;63906;55.686;37.532;2023-10-31T18:30:58;99121.88;;;9.23;100.00
75312;BME280;63906;55.686;37.532;2023-10-31T18:35:59;99108.19;;;9.27;100.00
75312;BME280;63906;55.686;37.532;2023-10-31T18:41:00;99114.41;;;9.20;100.00
75312;BME280;63906;55.686;37.532;2023-10-31T18:46:01;99132.16;;;9.52;100.00
75312;BME280;63906;55.686;37.532;2023-10-31T18:51:01;99138.53;;;9.78;100.00
75312;BME280;63906;55.686;37.532;2023-10-31T18:56:05;99103.53;;;9.70;100.00
75312;BME280;63906;55.686;37.532;2023-10-31T19:01:06;99118.88;;;9.74;100.00
75312;BME280;63906;55.686;37.532;2023-10-31T19:06:07;99085.91;;;9.64;100.00
75312;BME280;63906;55.686;37.532;2023-10-31T19:11:07;99001.88;;;9.16;100.00
75312;BME280;63906;55.686;37.532;2023-10-31T19:16:08;99110.00;;;9.81;100.00
75312;BME280;63906;55.686;37.532;2023-10-31T19:21:08;98999.13;;;9.38;100.00
75312;BME280;63906;55.686;37.532;2023-10-31T19:26:09;99078.09;;;9.91;100.00
75312;BME280;63906;55.686;37.532;2023-10-31T19:31:09;99032.03;;;10.02;100.00
75312;BME280;63906;55.686;37.532;2023-10-31T19:36:10;99058.72;;;10.18;100.00
75312;BME280;63906;55.686;37.532;2023-10-31T19:41:10;99026.94;;;9.87;100.00
75312;BME280;63906;55.686;37.532;2023-10-31T19:46:11;99053.44;;;9.98;100.00
75312;BME280;63906;55.686;37.532;2023-10-31T19:51:12;99019.06;;;9.93;100.00
75312;BME280;63906;55.686;37.532;2023-10-31T19:56:17;99045.78;;;10.10;100.00
75312;BME280;63906;55.686;37.532;2023-10-31T20:01:18;99000.44;;;9.75;100.00
75312;BME280;63906;55.686;37.532;2023-10-31T20:06:19;99036.03;;;9.91;100.00
75312;BME280;63906;55.686;37.532;2023-10-31T20:11:19;99038.31;;;10.20;100.00
75312;BME280;63906;55.686;37.532;2023-10-31T20:16:20;99027.97;;;10.12;100.00
75312;BME280;63906;55.686;37.532;2023-10-31T20:21:21;99028.16;;;9.91;100.00
75312;BME280;63906;55.686;37.532;2023-10-31T20:26:21;99006.13;;;10.05;100.00
75312;BME280;63906;55.686;37.532;2023-10-31T20:31:22;98947.59;;;9.43;100.00
75312;BME280;63906;55.686;37.532;2023-10-31T20:36:23;98985.50;;;9.82;100.00
75312;BME280;63906;55.686;37.532;2023-10-31T20:41:24;98998.19;;;9.65;100.00
75312;BME280;63906;55.686;37.532;2023-10-31T20:46:25;99014.19;;;9.70;100.00
75312;BME280;63906;55.686;37.532;2023-10-31T20:51:25;98950.63;;;9.27;100.00
75312;BME280;63906;55.686;37.532;2023-10-31T20:56:27;98956.72;;;9.41;100.00
75312;BME280;63906;55.686;37.532;2023-10-31T21:01:27;98966.06;;;9.63;100.00
75312;BME280;63906;55.686;37.532;2023-10-31T21:06:31;98988.91;;;9.69;100.00
75312;BME280;63906;55.686;37.532;2023-10-31T21:11:35;98991.78;;;9.94;100.00
75312;BME280;63906;55.686;37.532;2023-10-31T21:16:36;98936.16;;;10.04;100.00
75312;BME280;63906;55.686;37.532;2023-10-31T21:21:36;98977.81;;;10.14;100.00
75312;BME280;63906;55.686;37.532;2023-10-31T21:26:37;98924.41;;;9.87;100.00
75312;BME280;63906;55.686;37.532;2023-10-31T21:31:37;98923.22;;;9.83;100.00
75312;BME280;63906;55.686;37.532;2023-10-31T21:36:38;98938.16;;;10.15;100.00
75312;BME280;63906;55.686;37.532;2023-10-31T21:41:39;98932.91;;;10.29;100.00
75312;BME280;63906;55.686;37.532;2023-10-31T21:46:39;98947.50;;;10.31;100.00
75312;BME280;63906;55.686;37.532;2023-10-31T21:51:40;98936.16;;;10.31;100.00
75312;BME280;63906;55.686;37.532;2023-10-31T21:56:40;98944.84;;;10.38;100.00
75312;BME280;63906;55.686;37.532;2023-10-31T22:01:41;98924.75;;;10.63;100.00
75312;BME280;63906;55.686;37.532;2023-10-31T22:06:41;98927.19;;;10.58;100.00
75312;BME280;63906;55.686;37.532;2023-10-31T22:11:42;98906.53;;;10.55;100.00
75312;BME280;63906;55.686;37.532;2023-10-31T22:16:43;98846.69;;;10.44;100.00
75312;BME280;63906;55.686;37.532;2023-10-31T22:21:43;98884.38;;;10.83;100.00
75312;BME280;63906;55.686;37.532;2023-10-31T22:26:44;98895.44;;;10.98;100.00
75312;BME280;63906;55.686;37.532;2023-10-31T22:31:44;98875.66;;;10.89;100.00
75312;BME280;63906;55.686;37.532;2023-10-31T22:36:45;98855.00;;;10.86;100.00
75312;BME280;63906;55.686;37.532;2023-10-31T22:41:45;98818.69;;;10.63;100.00
75312;BME280;63906;55.686;37.532;2023-10-31T22:46:46;98868.50;;;11.02;100.00
75312;BME280;63906;55.686;37.532;2023-10-31T22:51:46;98833.53;;;10.89;100.00
75312;BME280;63906;55.686;37.532;2023-10-31T22:56:47;98847.25;;;10.97;100.00
75312;BME280;63906;55.686;37.532;2023-10-31T23:01:47;98803.69;;;10.63;100.00
75312;BME280;63906;55.686;37.532;2023-10-31T23:06:48;98867.50;;;10.97;100.00
75312;BME280;63906;55.686;37.532;2023-10-31T23:11:48;98826.91;;;11.11;100.00
75312;BME280;63906;55.686;37.532;2023-10-31T23:16:49;98853.97;;;10.87;100.00
75312;BME280;63906;55.686;37.532;2023-10-31T23:21:50;98834.97;;;10.85;100.00
75312;BME280;63906;55.686;37.532;2023-10-31T23:26:51;98781.81;;;10.69;100.00
75312;BME280;63906;55.686;37.532;2023-10-31T23:31:51;98779.97;;;10.32;100.00
75312;BME280;63906;55.686;37.532;2023-10-31T23:36:52;98773.16;;;10.56;100.00
75312;BME280;63906;55.686;37.532;2023-10-31T23:41:52;98812.09;;;10.78;100.00
75312;BME280;63906;55.686;37.532;2023-10-31T23:46:52;98811.38;;;10.65;100.00
75312;BME280;63906;55.686;37.532;2023-10-31T23:51:53;98790.63;;;10.43;100.00
75312;BME280;63906;55.686;37.532;2023-10-31T23:56:54;98782.28;;;10.53;100.00
